N926 LGKL-LICR
Flight info
| Callsign | N926 |
|---|---|
| Flight time | 1h 44m |
| Altitude | 28000 |
| Route | BERAP DCT CDC L137 GIMEL |
| Aircraft | PC12/L-VGD/A |
Departure
| Time | 2026-05-04 13:19 |
|---|---|
| Airport | Kalamata Airport (LGKL) |
Arrival
| Time | 2026-05-04 15:04 |
|---|---|
| Airport | Reggio Calabria Airport (LICR) |
| Time | Latitude | Longitude | Altitude | Speed | Heading |
|---|---|---|---|---|---|
| 2026-05-04 12:52 | 37.05901 | 22.02525 | 24 ft | 0 kts | 81° |
| 2026-05-04 13:13 | 37.05901 | 22.02527 | 24 ft | 2 kts | 87° |
| 2026-05-04 13:13 | 37.05899 | 22.02555 | 24 ft | 5 kts | 73° |
| 2026-05-04 13:13 | 37.05942 | 22.02578 | 23 ft | 10 kts | 348° |
| 2026-05-04 13:13 | 37.06024 | 22.02561 | 24 ft | 14 kts | 351° |
| 2026-05-04 13:14 | 37.06127 | 22.02535 | 24 ft | 16 kts | 345° |
| 2026-05-04 13:14 | 37.06244 | 22.02504 | 25 ft | 17 kts | 347° |
| 2026-05-04 13:14 | 37.06359 | 22.02477 | 25 ft | 17 kts | 349° |
| 2026-05-04 13:14 | 37.06438 | 22.02464 | 25 ft | 8 kts | 30° |
| 2026-05-04 13:15 | 37.06480 | 22.02502 | 25 ft | 9 kts | 347° |
| 2026-05-04 13:15 | 37.06543 | 22.02486 | 26 ft | 10 kts | 349° |
| 2026-05-04 13:15 | 37.06612 | 22.02470 | 26 ft | 10 kts | 349° |
| 2026-05-04 13:15 | 37.06687 | 22.02451 | 27 ft | 11 kts | 348° |
| 2026-05-04 13:16 | 37.06765 | 22.02430 | 27 ft | 12 kts | 347° |
| 2026-05-04 13:16 | 37.06847 | 22.02409 | 27 ft | 12 kts | 349° |
| 2026-05-04 13:16 | 37.06932 | 22.02392 | 27 ft | 13 kts | 352° |
| 2026-05-04 13:16 | 37.07022 | 22.02374 | 27 ft | 13 kts | 350° |
| 2026-05-04 13:17 | 37.07114 | 22.02353 | 27 ft | 13 kts | 350° |
| 2026-05-04 13:17 | 37.07162 | 22.02363 | 28 ft | 6 kts | 64° |
| 2026-05-04 13:17 | 37.07163 | 22.02416 | 27 ft | 7 kts | 83° |
| 2026-05-04 13:17 | 37.07144 | 22.02467 | 27 ft | 8 kts | 178° |
| 2026-05-04 13:18 | 37.07112 | 22.02475 | 27 ft | 0 kts | 168° |
| 2026-05-04 13:18 | 37.07111 | 22.02475 | 27 ft | 2 kts | 168° |
| 2026-05-04 13:18 | 37.07011 | 22.02501 | 28 ft | 35 kts | 169° |
| 2026-05-04 13:18 | 37.06589 | 22.02598 | 27 ft | 83 kts | 169° |
| 2026-05-04 13:19 | 37.05938 | 22.02755 | 97 ft | 102 kts | 169° |
| 2026-05-04 13:19 | 37.05235 | 22.02915 | 378 ft | 102 kts | 171° |
| 2026-05-04 13:19 | 37.04566 | 22.03164 | 743 ft | 98 kts | 147° |
| 2026-05-04 13:19 | 37.04303 | 22.03905 | 1052 ft | 107 kts | 84° |
| 2026-05-04 13:20 | 37.04814 | 22.04574 | 1330 ft | 119 kts | 15° |
| 2026-05-04 13:20 | 37.05667 | 22.04504 | 1651 ft | 123 kts | 351° |
| 2026-05-04 13:20 | 37.06526 | 22.04338 | 2012 ft | 126 kts | 350° |
| 2026-05-04 13:20 | 37.07386 | 22.04172 | 2386 ft | 124 kts | 351° |
| 2026-05-04 13:21 | 37.08233 | 22.04022 | 2762 ft | 122 kts | 350° |
| 2026-05-04 13:21 | 37.09086 | 22.03887 | 3131 ft | 126 kts | 350° |
| 2026-05-04 13:21 | 37.09983 | 22.03760 | 3511 ft | 134 kts | 351° |
| 2026-05-04 13:21 | 37.10932 | 22.03618 | 3891 ft | 141 kts | 351° |
| 2026-05-04 13:22 | 37.11907 | 22.03426 | 4259 ft | 146 kts | 338° |
| 2026-05-04 13:22 | 37.12641 | 22.02568 | 4649 ft | 148 kts | 309° |
| 2026-05-04 13:22 | 37.13316 | 22.01559 | 5026 ft | 154 kts | 312° |
| 2026-05-04 13:22 | 37.14048 | 22.00539 | 5405 ft | 161 kts | 313° |
| 2026-05-04 13:23 | 37.14815 | 21.99486 | 5782 ft | 166 kts | 313° |
| 2026-05-04 13:23 | 37.15602 | 21.98400 | 6158 ft | 170 kts | 313° |
| 2026-05-04 13:23 | 37.16407 | 21.97293 | 6531 ft | 173 kts | 313° |
| 2026-05-04 13:23 | 37.17227 | 21.96164 | 6917 ft | 176 kts | 313° |
| 2026-05-04 13:24 | 37.18057 | 21.95019 | 7284 ft | 178 kts | 313° |
| 2026-05-04 13:24 | 37.18882 | 21.93880 | 7653 ft | 179 kts | 313° |
| 2026-05-04 13:24 | 37.19721 | 21.92723 | 8028 ft | 180 kts | 313° |
| 2026-05-04 13:25 | 37.21409 | 21.90393 | 8778 ft | 180 kts | 313° |
| 2026-05-04 13:25 | 37.22250 | 21.89230 | 9144 ft | 179 kts | 313° |
| 2026-05-04 13:25 | 37.23082 | 21.88077 | 9527 ft | 178 kts | 314° |
| 2026-05-04 13:25 | 37.23916 | 21.86924 | 9902 ft | 179 kts | 314° |
| 2026-05-04 13:26 | 37.24777 | 21.85736 | 10006 ft | 192 kts | 314° |
| 2026-05-04 13:26 | 37.25708 | 21.84456 | 10015 ft | 204 kts | 314° |
| 2026-05-04 13:26 | 37.26667 | 21.83128 | 10018 ft | 211 kts | 314° |
| 2026-05-04 13:26 | 37.27665 | 21.81743 | 10018 ft | 216 kts | 314° |
| 2026-05-04 13:27 | 37.28682 | 21.80333 | 10022 ft | 219 kts | 314° |
| 2026-05-04 13:27 | 37.29675 | 21.78951 | 10358 ft | 207 kts | 314° |
| 2026-05-04 13:27 | 37.30617 | 21.77640 | 10728 ft | 198 kts | 314° |
| 2026-05-04 13:27 | 37.31521 | 21.76384 | 11098 ft | 191 kts | 314° |
| 2026-05-04 13:28 | 37.32399 | 21.75170 | 11471 ft | 184 kts | 315° |
| 2026-05-04 13:28 | 37.33246 | 21.73993 | 11850 ft | 179 kts | 315° |
| 2026-05-04 13:28 | 37.34075 | 21.72841 | 12218 ft | 176 kts | 315° |
| 2026-05-04 13:28 | 37.34878 | 21.71726 | 12586 ft | 173 kts | 315° |
| 2026-05-04 13:29 | 37.35677 | 21.70614 | 12963 ft | 170 kts | 315° |
| 2026-05-04 13:29 | 37.36464 | 21.69519 | 13338 ft | 168 kts | 315° |
| 2026-05-04 13:29 | 37.37247 | 21.68433 | 13709 ft | 167 kts | 315° |
| 2026-05-04 13:29 | 37.38022 | 21.67355 | 14083 ft | 165 kts | 315° |
| 2026-05-04 13:30 | 37.38787 | 21.66290 | 14457 ft | 164 kts | 315° |
| 2026-05-04 13:30 | 37.39546 | 21.65232 | 14831 ft | 162 kts | 315° |
| 2026-05-04 13:30 | 37.40301 | 21.64180 | 15192 ft | 162 kts | 315° |
| 2026-05-04 13:30 | 37.41055 | 21.63089 | 15322 ft | 173 kts | 308° |
| 2026-05-04 13:31 | 37.41535 | 21.61647 | 15457 ft | 184 kts | 295° |
| 2026-05-04 13:31 | 37.41951 | 21.60098 | 15585 ft | 190 kts | 295° |
| 2026-05-04 13:31 | 37.42395 | 21.58510 | 15712 ft | 194 kts | 296° |
| 2026-05-04 13:31 | 37.42852 | 21.56896 | 15839 ft | 197 kts | 296° |
| 2026-05-04 13:32 | 37.43316 | 21.55258 | 15965 ft | 200 kts | 295° |
| 2026-05-04 13:32 | 37.43783 | 21.53604 | 16090 ft | 201 kts | 295° |
| 2026-05-04 13:32 | 37.44250 | 21.51943 | 16216 ft | 208 kts | 295° |
| 2026-05-04 13:32 | 37.44739 | 21.50206 | 16345 ft | 213 kts | 295° |
| 2026-05-04 13:33 | 37.45239 | 21.48435 | 16472 ft | 217 kts | 295° |
| 2026-05-04 13:33 | 37.45746 | 21.46636 | 16597 ft | 219 kts | 295° |
| 2026-05-04 13:33 | 37.46258 | 21.44815 | 16721 ft | 222 kts | 295° |
| 2026-05-04 13:33 | 37.46774 | 21.42979 | 16848 ft | 223 kts | 295° |
| 2026-05-04 13:34 | 37.47288 | 21.41130 | 16969 ft | 224 kts | 295° |
| 2026-05-04 13:34 | 37.47806 | 21.39274 | 17099 ft | 225 kts | 295° |
| 2026-05-04 13:34 | 37.48321 | 21.37438 | 17217 ft | 226 kts | 295° |
| 2026-05-04 13:34 | 37.48844 | 21.35572 | 17348 ft | 226 kts | 295° |
| 2026-05-04 13:35 | 37.49366 | 21.33704 | 17474 ft | 227 kts | 295° |
| 2026-05-04 13:35 | 37.50414 | 21.29957 | 17723 ft | 227 kts | 295° |
| 2026-05-04 13:35 | 37.50938 | 21.28081 | 17848 ft | 227 kts | 295° |
| 2026-05-04 13:36 | 37.51461 | 21.26205 | 17973 ft | 227 kts | 295° |
| 2026-05-04 13:36 | 37.51985 | 21.24328 | 18099 ft | 227 kts | 295° |
| 2026-05-04 13:36 | 37.52501 | 21.22478 | 18222 ft | 227 kts | 295° |
| 2026-05-04 13:36 | 37.53022 | 21.20605 | 18347 ft | 227 kts | 295° |
| 2026-05-04 13:37 | 37.53544 | 21.18731 | 18472 ft | 226 kts | 295° |
| 2026-05-04 13:37 | 37.54064 | 21.16861 | 18598 ft | 226 kts | 296° |
| 2026-05-04 13:37 | 37.54583 | 21.14990 | 18723 ft | 226 kts | 296° |
| 2026-05-04 13:37 | 37.54928 | 21.13752 | 18806 ft | 226 kts | 295° |
| 2026-05-04 13:38 | 37.55622 | 21.11249 | 18973 ft | 226 kts | 296° |
| 2026-05-04 13:38 | 37.56140 | 21.09382 | 19098 ft | 226 kts | 296° |
| 2026-05-04 13:38 | 37.56657 | 21.07515 | 19222 ft | 226 kts | 296° |
| 2026-05-04 13:38 | 37.57174 | 21.05648 | 19349 ft | 225 kts | 296° |
| 2026-05-04 13:39 | 37.57682 | 21.03812 | 19472 ft | 225 kts | 296° |
| 2026-05-04 13:39 | 37.58196 | 21.01951 | 19597 ft | 225 kts | 296° |
| 2026-05-04 13:39 | 37.58710 | 21.00091 | 19722 ft | 225 kts | 296° |
| 2026-05-04 13:39 | 37.59224 | 20.98232 | 19847 ft | 224 kts | 296° |
| 2026-05-04 13:40 | 37.59737 | 20.96375 | 19975 ft | 224 kts | 296° |
| 2026-05-04 13:40 | 37.60249 | 20.94516 | 20097 ft | 224 kts | 296° |
| 2026-05-04 13:40 | 37.60754 | 20.92682 | 20221 ft | 224 kts | 296° |
| 2026-05-04 13:40 | 37.61266 | 20.90824 | 20346 ft | 224 kts | 296° |
| 2026-05-04 13:41 | 37.61777 | 20.88969 | 20471 ft | 224 kts | 296° |
| 2026-05-04 13:41 | 37.62287 | 20.87111 | 20597 ft | 224 kts | 296° |
| 2026-05-04 13:41 | 37.62797 | 20.85255 | 20722 ft | 224 kts | 296° |
| 2026-05-04 13:42 | 37.63815 | 20.81546 | 20972 ft | 224 kts | 296° |
| 2026-05-04 13:42 | 37.64326 | 20.79692 | 21097 ft | 224 kts | 296° |
| 2026-05-04 13:42 | 37.64836 | 20.77838 | 21222 ft | 224 kts | 296° |
| 2026-05-04 13:42 | 37.65339 | 20.76002 | 21346 ft | 224 kts | 296° |
| 2026-05-04 13:43 | 37.65848 | 20.74141 | 21471 ft | 224 kts | 296° |
| 2026-05-04 13:43 | 37.66354 | 20.72277 | 21596 ft | 225 kts | 296° |
| 2026-05-04 13:43 | 37.66861 | 20.70412 | 21721 ft | 224 kts | 296° |
| 2026-05-04 13:43 | 37.67362 | 20.68575 | 21844 ft | 219 kts | 296° |
| 2026-05-04 13:44 | 37.67853 | 20.66775 | 21968 ft | 215 kts | 296° |
| 2026-05-04 13:44 | 37.68336 | 20.65006 | 22092 ft | 212 kts | 296° |
| 2026-05-04 13:44 | 37.68812 | 20.63258 | 22216 ft | 209 kts | 296° |
| 2026-05-04 13:44 | 37.69277 | 20.61551 | 22338 ft | 208 kts | 296° |
| 2026-05-04 13:45 | 37.69744 | 20.59832 | 22460 ft | 206 kts | 296° |
| 2026-05-04 13:45 | 37.70209 | 20.58123 | 22588 ft | 205 kts | 297° |
| 2026-05-04 13:45 | 37.70670 | 20.56423 | 22713 ft | 204 kts | 297° |
| 2026-05-04 13:45 | 37.71131 | 20.54729 | 22838 ft | 204 kts | 297° |
| 2026-05-04 13:46 | 37.71590 | 20.53037 | 22962 ft | 203 kts | 297° |
| 2026-05-04 13:46 | 37.72048 | 20.51347 | 23088 ft | 203 kts | 297° |
| 2026-05-04 13:46 | 37.72510 | 20.49660 | 23213 ft | 203 kts | 297° |
| 2026-05-04 13:46 | 37.72963 | 20.47995 | 23336 ft | 203 kts | 297° |
| 2026-05-04 13:47 | 37.73419 | 20.46308 | 23465 ft | 203 kts | 297° |
| 2026-05-04 13:47 | 37.73875 | 20.44619 | 23581 ft | 203 kts | 297° |
| 2026-05-04 13:47 | 37.74331 | 20.42933 | 23711 ft | 203 kts | 297° |
| 2026-05-04 13:47 | 37.74786 | 20.41249 | 23836 ft | 203 kts | 297° |
| 2026-05-04 13:48 | 37.75241 | 20.39565 | 23961 ft | 203 kts | 297° |
| 2026-05-04 13:48 | 37.75696 | 20.37880 | 24086 ft | 203 kts | 297° |
| 2026-05-04 13:48 | 37.76151 | 20.36194 | 24211 ft | 203 kts | 297° |
| 2026-05-04 13:48 | 37.76605 | 20.34507 | 24337 ft | 203 kts | 297° |
| 2026-05-04 13:49 | 37.77060 | 20.32818 | 24462 ft | 203 kts | 297° |
| 2026-05-04 13:49 | 37.77507 | 20.31154 | 24586 ft | 203 kts | 297° |
| 2026-05-04 13:49 | 37.77961 | 20.29468 | 24711 ft | 203 kts | 297° |
| 2026-05-04 13:49 | 37.78414 | 20.27782 | 24836 ft | 203 kts | 297° |
| 2026-05-04 13:50 | 37.78866 | 20.26097 | 24961 ft | 202 kts | 297° |
| 2026-05-04 13:50 | 37.79318 | 20.24412 | 25086 ft | 202 kts | 297° |
| 2026-05-04 13:50 | 37.79770 | 20.22730 | 25211 ft | 202 kts | 297° |
| 2026-05-04 13:50 | 37.80221 | 20.21047 | 25337 ft | 202 kts | 297° |
| 2026-05-04 13:51 | 37.80665 | 20.19388 | 25460 ft | 202 kts | 297° |
| 2026-05-04 13:51 | 37.81116 | 20.17684 | 25587 ft | 202 kts | 297° |
| 2026-05-04 13:51 | 37.81562 | 20.16028 | 25710 ft | 202 kts | 297° |
| 2026-05-04 13:51 | 37.82013 | 20.14350 | 25837 ft | 201 kts | 297° |
| 2026-05-04 13:52 | 37.82909 | 20.10995 | 26088 ft | 201 kts | 297° |
| 2026-05-04 13:52 | 37.83357 | 20.09317 | 26211 ft | 201 kts | 297° |
| 2026-05-04 13:52 | 37.83804 | 20.07641 | 26336 ft | 201 kts | 297° |
| 2026-05-04 13:53 | 37.84250 | 20.05965 | 26461 ft | 201 kts | 297° |
| 2026-05-04 13:53 | 37.84696 | 20.04290 | 26585 ft | 201 kts | 297° |
| 2026-05-04 13:53 | 37.85135 | 20.02640 | 26710 ft | 201 kts | 297° |
| 2026-05-04 13:54 | 37.86024 | 19.99299 | 26965 ft | 200 kts | 297° |
| 2026-05-04 13:54 | 37.86467 | 19.97631 | 27083 ft | 200 kts | 297° |
| 2026-05-04 13:54 | 37.87350 | 19.94301 | 27335 ft | 199 kts | 297° |
| 2026-05-04 13:55 | 37.87791 | 19.92638 | 27457 ft | 199 kts | 297° |
| 2026-05-04 13:55 | 37.88671 | 19.89315 | 27711 ft | 199 kts | 297° |
| 2026-05-04 13:55 | 37.89105 | 19.87675 | 27835 ft | 199 kts | 297° |
| 2026-05-04 13:56 | 37.89544 | 19.86017 | 27960 ft | 199 kts | 297° |
| 2026-05-04 13:56 | 37.89982 | 19.84359 | 28085 ft | 198 kts | 298° |
| 2026-05-04 13:56 | 37.90868 | 19.81012 | 28170 ft | 204 kts | 297° |
| 2026-05-04 13:57 | 37.91323 | 19.79291 | 28171 ft | 208 kts | 297° |
| 2026-05-04 13:57 | 37.91784 | 19.77545 | 28173 ft | 210 kts | 297° |
| 2026-05-04 13:58 | 37.93173 | 19.72241 | 28174 ft | 214 kts | 297° |
| 2026-05-04 13:58 | 37.94119 | 19.68646 | 28175 ft | 216 kts | 297° |
| 2026-05-04 13:58 | 37.94592 | 19.66842 | 28175 ft | 216 kts | 297° |
| 2026-05-04 13:59 | 37.95065 | 19.65036 | 28175 ft | 216 kts | 296° |
| 2026-05-04 13:59 | 37.95539 | 19.63228 | 28175 ft | 216 kts | 296° |
| 2026-05-04 13:59 | 37.96481 | 19.59631 | 28176 ft | 217 kts | 296° |
| 2026-05-04 14:00 | 37.96955 | 19.57817 | 28175 ft | 217 kts | 296° |
| 2026-05-04 14:00 | 37.97904 | 19.54187 | 28175 ft | 217 kts | 296° |
| 2026-05-04 14:00 | 37.98378 | 19.52369 | 28175 ft | 217 kts | 296° |
| 2026-05-04 14:01 | 37.98852 | 19.50550 | 28175 ft | 218 kts | 296° |
| 2026-05-04 14:01 | 37.99166 | 19.49345 | 28175 ft | 218 kts | 296° |
| 2026-05-04 14:01 | 38.00268 | 19.45112 | 28175 ft | 218 kts | 296° |
| 2026-05-04 14:02 | 38.00742 | 19.43288 | 28175 ft | 217 kts | 296° |
| 2026-05-04 14:02 | 38.00809 | 19.41320 | 28184 ft | 241 kts | 267° |
| 2026-05-04 14:02 | 38.00088 | 19.39320 | 28182 ft | 256 kts | 253° |
| 2026-05-04 14:02 | 37.99149 | 19.37383 | 28184 ft | 259 kts | 250° |
| 2026-05-04 14:03 | 37.98506 | 19.36108 | 28184 ft | 259 kts | 250° |
| 2026-05-04 14:03 | 37.97531 | 19.34181 | 28184 ft | 260 kts | 250° |
| 2026-05-04 14:03 | 37.96555 | 19.32252 | 28184 ft | 260 kts | 250° |
| 2026-05-04 14:03 | 37.95264 | 19.29697 | 28184 ft | 260 kts | 250° |
| 2026-05-04 14:04 | 37.93320 | 19.25832 | 28183 ft | 260 kts | 250° |
| 2026-05-04 14:04 | 37.92352 | 19.23900 | 28183 ft | 260 kts | 250° |
| 2026-05-04 14:04 | 37.91712 | 19.22621 | 28182 ft | 260 kts | 250° |
| 2026-05-04 14:05 | 37.89787 | 19.18754 | 28182 ft | 259 kts | 250° |
| 2026-05-04 14:05 | 37.88825 | 19.16821 | 28182 ft | 260 kts | 250° |
| 2026-05-04 14:05 | 37.87557 | 19.14256 | 28183 ft | 259 kts | 250° |
| 2026-05-04 14:06 | 37.86604 | 19.12323 | 28183 ft | 259 kts | 250° |
| 2026-05-04 14:06 | 37.85960 | 19.11015 | 28182 ft | 259 kts | 250° |
| 2026-05-04 14:06 | 37.85010 | 19.09080 | 28182 ft | 259 kts | 250° |
| 2026-05-04 14:06 | 37.84077 | 19.07173 | 28182 ft | 259 kts | 250° |
| 2026-05-04 14:07 | 37.83132 | 19.05238 | 28182 ft | 259 kts | 250° |
| 2026-05-04 14:07 | 37.82190 | 19.03300 | 28182 ft | 259 kts | 250° |
| 2026-05-04 14:07 | 37.81249 | 19.01362 | 28183 ft | 259 kts | 250° |
| 2026-05-04 14:07 | 37.80006 | 18.98794 | 28183 ft | 258 kts | 250° |
| 2026-05-04 14:08 | 37.79376 | 18.97485 | 28183 ft | 258 kts | 250° |
| 2026-05-04 14:08 | 37.78442 | 18.95544 | 28183 ft | 258 kts | 250° |
| 2026-05-04 14:08 | 37.77521 | 18.93630 | 28183 ft | 258 kts | 250° |
| 2026-05-04 14:08 | 37.76588 | 18.91692 | 28182 ft | 258 kts | 250° |
| 2026-05-04 14:09 | 37.74721 | 18.87811 | 28174 ft | 258 kts | 250° |
| 2026-05-04 14:09 | 37.73789 | 18.85870 | 28173 ft | 258 kts | 250° |
| 2026-05-04 14:10 | 37.71936 | 18.81989 | 28173 ft | 258 kts | 250° |
| 2026-05-04 14:10 | 37.71011 | 18.80051 | 28173 ft | 258 kts | 250° |
| 2026-05-04 14:10 | 37.70086 | 18.78114 | 28174 ft | 258 kts | 250° |
| 2026-05-04 14:10 | 37.69177 | 18.76204 | 28173 ft | 257 kts | 250° |
| 2026-05-04 14:11 | 37.68270 | 18.74261 | 28172 ft | 255 kts | 252° |
| 2026-05-04 14:11 | 37.67118 | 18.70209 | 28172 ft | 237 kts | 272° |
| 2026-05-04 14:11 | 37.67023 | 18.68154 | 28165 ft | 233 kts | 278° |
| 2026-05-04 14:12 | 37.67020 | 18.66112 | 28165 ft | 233 kts | 279° |
| 2026-05-04 14:12 | 37.67037 | 18.64070 | 28167 ft | 233 kts | 279° |
| 2026-05-04 14:12 | 37.67080 | 18.59981 | 28162 ft | 233 kts | 279° |
| 2026-05-04 14:13 | 37.67103 | 18.57963 | 28158 ft | 233 kts | 279° |
| 2026-05-04 14:13 | 37.67126 | 18.55914 | 28162 ft | 233 kts | 279° |
| 2026-05-04 14:13 | 37.67149 | 18.53864 | 28162 ft | 234 kts | 279° |
| 2026-05-04 14:13 | 37.67175 | 18.51813 | 28156 ft | 234 kts | 279° |
| 2026-05-04 14:14 | 37.67203 | 18.49760 | 28162 ft | 234 kts | 279° |
| 2026-05-04 14:14 | 37.67258 | 18.45651 | 28162 ft | 234 kts | 279° |
| 2026-05-04 14:14 | 37.67285 | 18.43624 | 28162 ft | 234 kts | 279° |
| 2026-05-04 14:15 | 37.67341 | 18.39510 | 28162 ft | 234 kts | 279° |
| 2026-05-04 14:15 | 37.67396 | 18.35397 | 28162 ft | 234 kts | 279° |
| 2026-05-04 14:16 | 37.67452 | 18.31283 | 28162 ft | 235 kts | 279° |
| 2026-05-04 14:16 | 37.67484 | 18.29224 | 28162 ft | 235 kts | 279° |
| 2026-05-04 14:17 | 37.67549 | 18.25133 | 28154 ft | 235 kts | 279° |
| 2026-05-04 14:17 | 37.67581 | 18.23071 | 28157 ft | 235 kts | 279° |
| 2026-05-04 14:17 | 37.67646 | 18.18952 | 28152 ft | 235 kts | 279° |
| 2026-05-04 14:18 | 37.67679 | 18.16892 | 28162 ft | 235 kts | 279° |
| 2026-05-04 14:18 | 37.67745 | 18.12765 | 28156 ft | 235 kts | 279° |
| 2026-05-04 14:19 | 37.67810 | 18.08641 | 28162 ft | 235 kts | 279° |
| 2026-05-04 14:19 | 37.67842 | 18.06578 | 28162 ft | 235 kts | 279° |
| 2026-05-04 14:19 | 37.67873 | 18.04543 | 28162 ft | 235 kts | 279° |
| 2026-05-04 14:19 | 37.67904 | 18.02479 | 28162 ft | 235 kts | 279° |
| 2026-05-04 14:20 | 37.67936 | 18.00416 | 28159 ft | 235 kts | 279° |
| 2026-05-04 14:20 | 37.67968 | 17.98353 | 28162 ft | 235 kts | 279° |
| 2026-05-04 14:20 | 37.68004 | 17.96286 | 28154 ft | 236 kts | 279° |
| 2026-05-04 14:21 | 37.68084 | 17.92155 | 28155 ft | 235 kts | 279° |
| 2026-05-04 14:21 | 37.68125 | 17.90092 | 28152 ft | 235 kts | 279° |
| 2026-05-04 14:21 | 37.68166 | 17.88054 | 28155 ft | 235 kts | 279° |
| 2026-05-04 14:21 | 37.68206 | 17.85989 | 28152 ft | 235 kts | 279° |
| 2026-05-04 14:22 | 37.68247 | 17.83922 | 28155 ft | 236 kts | 279° |
| 2026-05-04 14:22 | 37.68287 | 17.81855 | 28155 ft | 236 kts | 279° |
| 2026-05-04 14:22 | 37.68327 | 17.79789 | 28155 ft | 235 kts | 279° |
| 2026-05-04 14:22 | 37.68367 | 17.77723 | 28155 ft | 235 kts | 279° |
| 2026-05-04 14:23 | 37.68447 | 17.73593 | 28154 ft | 235 kts | 279° |
| 2026-05-04 14:23 | 37.68486 | 17.71531 | 28148 ft | 235 kts | 279° |
| 2026-05-04 14:23 | 37.68526 | 17.69496 | 28155 ft | 235 kts | 279° |
| 2026-05-04 14:24 | 37.68565 | 17.67433 | 28155 ft | 235 kts | 279° |
| 2026-05-04 14:24 | 37.68604 | 17.65370 | 28155 ft | 235 kts | 279° |
| 2026-05-04 14:24 | 37.68643 | 17.63306 | 28151 ft | 235 kts | 279° |
| 2026-05-04 14:24 | 37.68682 | 17.61244 | 28155 ft | 235 kts | 279° |
| 2026-05-04 14:25 | 37.68721 | 17.59181 | 28154 ft | 235 kts | 279° |
| 2026-05-04 14:25 | 37.68796 | 17.55086 | 28155 ft | 235 kts | 279° |
| 2026-05-04 14:25 | 37.68834 | 17.53024 | 28155 ft | 235 kts | 279° |
| 2026-05-04 14:26 | 37.68872 | 17.50961 | 28155 ft | 235 kts | 279° |
| 2026-05-04 14:26 | 37.68915 | 17.48900 | 28145 ft | 235 kts | 279° |
| 2026-05-04 14:26 | 37.68961 | 17.46840 | 28145 ft | 235 kts | 279° |
| 2026-05-04 14:26 | 37.69008 | 17.44779 | 28155 ft | 235 kts | 279° |
| 2026-05-04 14:27 | 37.69055 | 17.42717 | 28155 ft | 235 kts | 279° |
| 2026-05-04 14:27 | 37.69102 | 17.40655 | 28151 ft | 235 kts | 279° |
| 2026-05-04 14:27 | 37.69149 | 17.38621 | 28155 ft | 235 kts | 279° |
| 2026-05-04 14:27 | 37.69197 | 17.36557 | 28149 ft | 235 kts | 279° |
| 2026-05-04 14:28 | 37.69247 | 17.34492 | 28155 ft | 235 kts | 279° |
| 2026-05-04 14:28 | 37.69299 | 17.32426 | 28155 ft | 236 kts | 279° |
| 2026-05-04 14:28 | 37.69350 | 17.30358 | 28155 ft | 236 kts | 279° |
| 2026-05-04 14:28 | 37.69402 | 17.28292 | 28155 ft | 236 kts | 279° |
| 2026-05-04 14:29 | 37.69512 | 17.24160 | 28155 ft | 236 kts | 279° |
| 2026-05-04 14:29 | 37.69626 | 17.20055 | 28155 ft | 236 kts | 279° |
| 2026-05-04 14:30 | 37.69687 | 17.17988 | 28155 ft | 236 kts | 279° |
| 2026-05-04 14:30 | 37.69747 | 17.15920 | 28151 ft | 236 kts | 279° |
| 2026-05-04 14:30 | 37.69867 | 17.11782 | 28155 ft | 236 kts | 279° |
| 2026-05-04 14:31 | 37.69927 | 17.09713 | 28152 ft | 236 kts | 279° |
| 2026-05-04 14:31 | 37.70086 | 17.05592 | 28154 ft | 232 kts | 284° |
| 2026-05-04 14:32 | 37.70792 | 17.01681 | 28151 ft | 229 kts | 290° |
| 2026-05-04 14:32 | 37.71199 | 16.99732 | 28155 ft | 230 kts | 290° |
| 2026-05-04 14:32 | 37.71609 | 16.97782 | 28155 ft | 230 kts | 290° |
| 2026-05-04 14:32 | 37.72023 | 16.95831 | 28155 ft | 230 kts | 290° |
| 2026-05-04 14:33 | 37.72438 | 16.93878 | 28155 ft | 230 kts | 290° |
| 2026-05-04 14:33 | 37.72855 | 16.91923 | 28155 ft | 230 kts | 290° |
| 2026-05-04 14:33 | 37.73271 | 16.89968 | 28150 ft | 231 kts | 290° |
| 2026-05-04 14:33 | 37.73688 | 16.88014 | 28146 ft | 231 kts | 290° |
| 2026-05-04 14:34 | 37.74134 | 16.86104 | 28151 ft | 228 kts | 295° |
| 2026-05-04 14:34 | 37.74771 | 16.84277 | 28161 ft | 226 kts | 299° |
| 2026-05-04 14:34 | 37.75468 | 16.82492 | 28152 ft | 227 kts | 300° |
| 2026-05-04 14:34 | 37.76183 | 16.80714 | 28161 ft | 227 kts | 300° |
| 2026-05-04 14:35 | 37.76903 | 16.78933 | 28062 ft | 228 kts | 300° |
| 2026-05-04 14:35 | 37.77632 | 16.77140 | 27861 ft | 230 kts | 300° |
| 2026-05-04 14:35 | 37.78364 | 16.75345 | 27662 ft | 230 kts | 300° |
| 2026-05-04 14:35 | 37.79089 | 16.73566 | 27458 ft | 231 kts | 300° |
| 2026-05-04 14:36 | 37.79825 | 16.71763 | 27264 ft | 231 kts | 300° |
| 2026-05-04 14:36 | 37.80563 | 16.69957 | 27064 ft | 231 kts | 300° |
| 2026-05-04 14:36 | 37.81300 | 16.68151 | 26869 ft | 231 kts | 300° |
| 2026-05-04 14:36 | 37.82039 | 16.66346 | 26664 ft | 231 kts | 300° |
| 2026-05-04 14:37 | 37.82776 | 16.64538 | 26464 ft | 231 kts | 300° |
| 2026-05-04 14:37 | 37.83512 | 16.62729 | 26264 ft | 231 kts | 300° |
| 2026-05-04 14:37 | 37.84247 | 16.60924 | 26058 ft | 231 kts | 300° |
| 2026-05-04 14:37 | 37.84984 | 16.59123 | 25863 ft | 230 kts | 300° |
| 2026-05-04 14:38 | 37.85709 | 16.57351 | 25666 ft | 230 kts | 300° |
| 2026-05-04 14:38 | 37.86443 | 16.55556 | 25466 ft | 229 kts | 300° |
| 2026-05-04 14:38 | 37.87175 | 16.53767 | 25262 ft | 229 kts | 300° |
| 2026-05-04 14:38 | 37.87907 | 16.51979 | 25065 ft | 229 kts | 300° |
| 2026-05-04 14:39 | 37.88637 | 16.50194 | 24865 ft | 228 kts | 300° |
| 2026-05-04 14:39 | 37.89367 | 16.48406 | 24665 ft | 229 kts | 300° |
| 2026-05-04 14:39 | 37.90095 | 16.46620 | 24465 ft | 228 kts | 300° |
| 2026-05-04 14:40 | 37.91540 | 16.43071 | 24067 ft | 228 kts | 300° |
| 2026-05-04 14:40 | 37.92265 | 16.41288 | 23867 ft | 228 kts | 300° |
| 2026-05-04 14:40 | 37.92990 | 16.39505 | 23666 ft | 227 kts | 300° |
| 2026-05-04 14:40 | 37.93708 | 16.37741 | 23466 ft | 226 kts | 300° |
| 2026-05-04 14:41 | 37.94434 | 16.35966 | 23254 ft | 228 kts | 300° |
| 2026-05-04 14:41 | 37.95166 | 16.34178 | 23067 ft | 230 kts | 300° |
| 2026-05-04 14:41 | 37.96638 | 16.30582 | 22667 ft | 230 kts | 300° |
| 2026-05-04 14:42 | 37.98093 | 16.27012 | 22269 ft | 229 kts | 300° |
| 2026-05-04 14:42 | 37.98826 | 16.25216 | 22068 ft | 229 kts | 300° |
| 2026-05-04 14:42 | 37.99560 | 16.23419 | 21868 ft | 230 kts | 300° |
| 2026-05-04 14:43 | 38.00298 | 16.21620 | 21668 ft | 230 kts | 300° |
| 2026-05-04 14:43 | 38.01037 | 16.19821 | 21468 ft | 230 kts | 300° |
| 2026-05-04 14:43 | 38.01778 | 16.18019 | 21268 ft | 230 kts | 300° |
| 2026-05-04 14:43 | 38.02522 | 16.16217 | 21067 ft | 231 kts | 300° |
| 2026-05-04 14:44 | 38.03259 | 16.14437 | 20869 ft | 231 kts | 300° |
| 2026-05-04 14:44 | 38.04005 | 16.12632 | 20671 ft | 231 kts | 300° |
| 2026-05-04 14:44 | 38.04749 | 16.10830 | 20470 ft | 230 kts | 300° |
| 2026-05-04 14:44 | 38.05493 | 16.09029 | 20269 ft | 230 kts | 300° |
| 2026-05-04 14:45 | 38.06237 | 16.07230 | 20069 ft | 230 kts | 300° |
| 2026-05-04 14:45 | 38.06983 | 16.05432 | 19870 ft | 230 kts | 300° |
| 2026-05-04 14:45 | 38.07727 | 16.03634 | 19673 ft | 230 kts | 300° |
| 2026-05-04 14:45 | 38.08471 | 16.01836 | 19468 ft | 230 kts | 300° |
| 2026-05-04 14:46 | 38.09213 | 16.00041 | 19269 ft | 230 kts | 300° |
| 2026-05-04 14:46 | 38.09962 | 15.98249 | 19066 ft | 230 kts | 300° |
| 2026-05-04 14:46 | 38.10701 | 15.96483 | 18870 ft | 230 kts | 300° |
| 2026-05-04 14:46 | 38.11447 | 15.94698 | 18669 ft | 228 kts | 300° |
| 2026-05-04 14:47 | 38.12186 | 15.92932 | 18470 ft | 226 kts | 300° |
| 2026-05-04 14:47 | 38.12924 | 15.91172 | 18270 ft | 225 kts | 300° |
| 2026-05-04 14:47 | 38.13660 | 15.89419 | 18066 ft | 225 kts | 300° |
| 2026-05-04 14:47 | 38.14397 | 15.87672 | 17867 ft | 224 kts | 300° |
| 2026-05-04 14:48 | 38.15131 | 15.85930 | 17666 ft | 224 kts | 300° |
| 2026-05-04 14:48 | 38.15866 | 15.84189 | 17469 ft | 224 kts | 300° |
| 2026-05-04 14:48 | 38.16595 | 15.82467 | 17268 ft | 225 kts | 300° |
| 2026-05-04 14:48 | 38.17330 | 15.80726 | 17069 ft | 223 kts | 300° |
| 2026-05-04 14:49 | 38.18064 | 15.78990 | 16870 ft | 222 kts | 300° |
| 2026-05-04 14:49 | 38.18811 | 15.77330 | 16573 ft | 209 kts | 308° |
| 2026-05-04 14:49 | 38.19935 | 15.76272 | 16274 ft | 197 kts | 334° |
| 2026-05-04 14:49 | 38.21175 | 15.75653 | 15970 ft | 186 kts | 338° |
| 2026-05-04 14:50 | 38.22366 | 15.75116 | 15667 ft | 177 kts | 339° |
| 2026-05-04 14:50 | 38.23504 | 15.74608 | 15367 ft | 170 kts | 339° |
| 2026-05-04 14:50 | 38.24605 | 15.74116 | 15061 ft | 165 kts | 339° |
| 2026-05-04 14:50 | 38.25665 | 15.73643 | 14763 ft | 162 kts | 339° |
| 2026-05-04 14:51 | 38.26719 | 15.73168 | 14462 ft | 159 kts | 339° |
| 2026-05-04 14:51 | 38.27749 | 15.72702 | 14162 ft | 156 kts | 339° |
| 2026-05-04 14:51 | 38.28769 | 15.72243 | 13860 ft | 156 kts | 339° |
| 2026-05-04 14:51 | 38.29781 | 15.71784 | 13557 ft | 153 kts | 339° |
| 2026-05-04 14:52 | 38.30780 | 15.71326 | 13258 ft | 152 kts | 339° |
| 2026-05-04 14:52 | 38.31772 | 15.70871 | 12962 ft | 152 kts | 339° |
| 2026-05-04 14:52 | 38.32749 | 15.70418 | 12648 ft | 151 kts | 339° |
| 2026-05-04 14:52 | 38.33730 | 15.69961 | 12336 ft | 147 kts | 339° |
| 2026-05-04 14:53 | 38.34674 | 15.69518 | 12015 ft | 144 kts | 339° |
| 2026-05-04 14:53 | 38.35604 | 15.69080 | 11685 ft | 141 kts | 339° |
| 2026-05-04 14:53 | 38.36523 | 15.68644 | 11363 ft | 141 kts | 339° |
| 2026-05-04 14:53 | 38.37439 | 15.68207 | 11038 ft | 140 kts | 339° |
| 2026-05-04 14:54 | 38.38354 | 15.67770 | 10713 ft | 140 kts | 339° |
| 2026-05-04 14:54 | 38.39057 | 15.66969 | 10382 ft | 143 kts | 292° |
| 2026-05-04 14:54 | 38.38927 | 15.65736 | 10063 ft | 149 kts | 236° |
| 2026-05-04 14:54 | 38.38057 | 15.65069 | 9757 ft | 151 kts | 198° |
| 2026-05-04 14:55 | 38.37041 | 15.64705 | 9435 ft | 152 kts | 197° |
| 2026-05-04 14:55 | 38.36026 | 15.64337 | 9111 ft | 151 kts | 197° |
| 2026-05-04 14:55 | 38.35020 | 15.63963 | 8787 ft | 150 kts | 197° |
| 2026-05-04 14:55 | 38.34018 | 15.63588 | 8462 ft | 150 kts | 197° |
| 2026-05-04 14:56 | 38.33020 | 15.63215 | 8138 ft | 149 kts | 197° |
| 2026-05-04 14:56 | 38.32026 | 15.62844 | 7813 ft | 149 kts | 197° |
| 2026-05-04 14:56 | 38.31048 | 15.62480 | 7494 ft | 148 kts | 197° |
| 2026-05-04 14:56 | 38.30061 | 15.62113 | 7170 ft | 148 kts | 197° |
| 2026-05-04 14:57 | 38.29074 | 15.61748 | 6846 ft | 147 kts | 197° |
| 2026-05-04 14:57 | 38.28089 | 15.61390 | 6522 ft | 147 kts | 197° |
| 2026-05-04 14:57 | 38.27106 | 15.61034 | 6204 ft | 147 kts | 197° |
| 2026-05-04 14:57 | 38.26113 | 15.60676 | 5880 ft | 149 kts | 197° |
| 2026-05-04 14:58 | 38.25116 | 15.60315 | 5551 ft | 148 kts | 197° |
| 2026-05-04 14:58 | 38.24133 | 15.59964 | 5226 ft | 145 kts | 197° |
| 2026-05-04 14:58 | 38.23176 | 15.59630 | 4906 ft | 144 kts | 197° |
| 2026-05-04 14:58 | 38.22214 | 15.59309 | 4580 ft | 142 kts | 194° |
| 2026-05-04 14:59 | 38.21228 | 15.59285 | 4252 ft | 142 kts | 179° |
| 2026-05-04 14:59 | 38.20244 | 15.59411 | 3930 ft | 142 kts | 171° |
| 2026-05-04 14:59 | 38.18468 | 15.60134 | 3275 ft | 128 kts | 166° |
| 2026-05-04 15:00 | 38.17633 | 15.60504 | 2950 ft | 126 kts | 166° |
| 2026-05-04 15:00 | 38.16869 | 15.60858 | 2881 ft | 106 kts | 166° |
| 2026-05-04 15:00 | 38.16236 | 15.61143 | 2820 ft | 91 kts | 173° |
| 2026-05-04 15:01 | 38.14967 | 15.61497 | 2481 ft | 92 kts | 174° |
| 2026-05-04 15:01 | 38.14331 | 15.61661 | 2312 ft | 93 kts | 174° |
| 2026-05-04 15:01 | 38.13703 | 15.61814 | 2153 ft | 92 kts | 174° |
| 2026-05-04 15:01 | 38.13085 | 15.62081 | 2060 ft | 93 kts | 161° |
| 2026-05-04 15:02 | 38.12454 | 15.62410 | 1886 ft | 101 kts | 162° |
| 2026-05-04 15:02 | 38.11818 | 15.62734 | 1690 ft | 99 kts | 161° |
| 2026-05-04 15:02 | 38.11161 | 15.62978 | 1473 ft | 99 kts | 171° |
| 2026-05-04 15:02 | 38.10487 | 15.63176 | 1218 ft | 99 kts | 167° |
| 2026-05-04 15:03 | 38.09830 | 15.63445 | 1026 ft | 100 kts | 159° |
| 2026-05-04 15:03 | 38.09198 | 15.63826 | 746 ft | 102 kts | 155° |
| 2026-05-04 15:03 | 38.08563 | 15.64236 | 431 ft | 103 kts | 156° |
| 2026-05-04 15:03 | 38.07929 | 15.64632 | 140 ft | 99 kts | 154° |
| 2026-05-04 15:04 | 38.07373 | 15.64999 | 60 ft | 81 kts | 153° |
| 2026-05-04 15:04 | 38.07107 | 15.65168 | 53 ft | 5 kts | 146° |
| 2026-05-04 15:04 | 38.07080 | 15.65251 | 53 ft | 16 kts | 109° |
| 2026-05-04 15:04 | 38.07046 | 15.65369 | 53 ft | 5 kts | 107° |
| 2026-05-04 15:05 | 38.07053 | 15.65420 | 53 ft | 7 kts | 40° |
| 2026-05-04 15:05 | 38.07107 | 15.65411 | 51 ft | 8 kts | 326° |
| 2026-05-04 15:05 | 38.07138 | 15.65388 | 51 ft | 5 kts | 331° |
| 2026-05-04 15:05 | 38.07176 | 15.65376 | 51 ft | 7 kts | 39° |
| 2026-05-04 15:06 | 38.07164 | 15.65434 | 50 ft | 8 kts | 89° |
| 2026-05-04 15:06 | 38.07195 | 15.65430 | 50 ft | 7 kts | 270° |
| 2026-05-04 15:06 | 38.07187 | 15.65413 | 50 ft | 1 kts | 200° |